sensor_id;sensor_type;location;lat;lon;timestamp;temperature;humidity
73829;SHT30;62176;48.450;-4.466;2022-09-09T00:04:32;16.80;85.59
73829;SHT30;62176;48.450;-4.466;2022-09-09T00:15:10;16.81;86.01
73829;SHT30;62176;48.450;-4.466;2022-09-09T00:20:16;16.83;85.98
73829;SHT30;62176;48.450;-4.466;2022-09-09T00:23:32;16.80;85.87
73829;SHT30;62176;48.450;-4.466;2022-09-09T00:28:22;16.84;85.82
73829;SHT30;62176;48.450;-4.466;2022-09-09T00:30:49;16.83;85.91
73829;SHT30;62176;48.450;-4.466;2022-09-09T00:33:18;16.84;86.10
73829;SHT30;62176;48.450;-4.466;2022-09-09T00:35:49;16.84;86.01
73829;SHT30;62176;48.450;-4.466;2022-09-09T00:38:34;16.87;86.00
73829;SHT30;62176;48.450;-4.466;2022-09-09T00:41:22;16.87;85.53
73829;SHT30;62176;48.450;-4.466;2022-09-09T00:44:06;16.88;85.46
73829;SHT30;62176;48.450;-4.466;2022-09-09T00:49:56;16.91;85.13
73829;SHT30;62176;48.450;-4.466;2022-09-09T00:57:43;16.90;85.25
73829;SHT30;62176;48.450;-4.466;2022-09-09T01:00:25;16.91;85.27
73829;SHT30;62176;48.450;-4.466;2022-09-09T01:03:20;16.94;85.32
73829;SHT30;62176;48.450;-4.466;2022-09-09T01:06:40;16.90;84.86
73829;SHT30;62176;48.450;-4.466;2022-09-09T01:11:23;16.93;84.43
73829;SHT30;62176;48.450;-4.466;2022-09-09T01:13:58;16.94;84.25
73829;SHT30;62176;48.450;-4.466;2022-09-09T01:16:27;16.90;84.01
73829;SHT30;62176;48.450;-4.466;2022-09-09T01:18:54;16.91;83.82
73829;SHT30;62176;48.450;-4.466;2022-09-09T01:21:40;16.91;83.69
73829;SHT30;62176;48.450;-4.466;2022-09-09T01:24:40;16.91;83.55
73829;SHT30;62176;48.450;-4.466;2022-09-09T01:27:08;16.93;83.60
73829;SHT30;62176;48.450;-4.466;2022-09-09T01:29:34;16.93;83.13
73829;SHT30;62176;48.450;-4.466;2022-09-09T01:35:04;16.88;83.15
73829;SHT30;62176;48.450;-4.466;2022-09-09T01:37:29;16.90;83.83
73829;SHT30;62176;48.450;-4.466;2022-09-09T01:39:55;16.88;83.26
73829;SHT30;62176;48.450;-4.466;2022-09-09T01:42:20;16.84;83.00
73829;SHT30;62176;48.450;-4.466;2022-09-09T01:44:46;16.84;83.43
73829;SHT30;62176;48.450;-4.466;2022-09-09T01:47:11;16.81;83.30
73829;SHT30;62176;48.450;-4.466;2022-09-09T01:49:37;16.79;83.09
73829;SHT30;62176;48.450;-4.466;2022-09-09T01:52:40;16.79;83.52
73829;SHT30;62176;48.450;-4.466;2022-09-09T01:55:42;16.77;83.51
73829;SHT30;62176;48.450;-4.466;2022-09-09T02:03:52;16.73;83.34
73829;SHT30;62176;48.450;-4.466;2022-09-09T02:06:27;16.73;83.50
73829;SHT30;62176;48.450;-4.466;2022-09-09T02:08:57;16.73;83.39
73829;SHT30;62176;48.450;-4.466;2022-09-09T02:11:26;16.72;83.67
73829;SHT30;62176;48.450;-4.466;2022-09-09T02:14:16;16.73;83.99
73829;SHT30;62176;48.450;-4.466;2022-09-09T02:16:47;16.76;83.95
73829;SHT30;62176;48.450;-4.466;2022-09-09T02:19:23;16.70;83.90
73829;SHT30;62176;48.450;-4.466;2022-09-09T02:21:56;16.73;83.97
73829;SHT30;62176;48.450;-4.466;2022-09-09T02:24:22;16.73;84.17
73829;SHT30;62176;48.450;-4.466;2022-09-09T02:26:52;16.76;84.04
73829;SHT30;62176;48.450;-4.466;2022-09-09T02:29:22;16.76;84.09
73829;SHT30;62176;48.450;-4.466;2022-09-09T02:31:49;16.76;84.24
73829;SHT30;62176;48.450;-4.466;2022-09-09T02:34:17;16.76;83.90
73829;SHT30;62176;48.450;-4.466;2022-09-09T02:36:46;16.80;84.05
73829;SHT30;62176;48.450;-4.466;2022-09-09T02:39:12;16.80;83.79
73829;SHT30;62176;48.450;-4.466;2022-09-09T02:41:44;16.80;84.12
73829;SHT30;62176;48.450;-4.466;2022-09-09T02:44:12;16.77;83.80
73829;SHT30;62176;48.450;-4.466;2022-09-09T02:55:24;16.76;83.46
73829;SHT30;62176;48.450;-4.466;2022-09-09T02:57:55;16.74;83.10
73829;SHT30;62176;48.450;-4.466;2022-09-09T03:00:26;16.76;83.81
73829;SHT30;62176;48.450;-4.466;2022-09-09T03:02:53;16.77;83.43
73829;SHT30;62176;48.450;-4.466;2022-09-09T03:05:19;16.74;83.47
73829;SHT30;62176;48.450;-4.466;2022-09-09T03:07:45;16.77;83.77
73829;SHT30;62176;48.450;-4.466;2022-09-09T03:10:11;16.76;83.93
73829;SHT30;62176;48.450;-4.466;2022-09-09T03:12:36;16.72;83.73
73829;SHT30;62176;48.450;-4.466;2022-09-09T03:15:02;16.73;83.88
73829;SHT30;62176;48.450;-4.466;2022-09-09T03:17:27;16.72;84.12
73829;SHT30;62176;48.450;-4.466;2022-09-09T03:19:53;16.73;83.83
73829;SHT30;62176;48.450;-4.466;2022-09-09T03:22:20;16.74;83.81
73829;SHT30;62176;48.450;-4.466;2022-09-09T03:24:46;16.79;84.02
73829;SHT30;62176;48.450;-4.466;2022-09-09T03:27:12;16.79;83.83
73829;SHT30;62176;48.450;-4.466;2022-09-09T03:29:39;16.79;83.56
73829;SHT30;62176;48.450;-4.466;2022-09-09T03:32:05;16.79;83.56
73829;SHT30;62176;48.450;-4.466;2022-09-09T03:34:30;16.76;83.53
73829;SHT30;62176;48.450;-4.466;2022-09-09T03:36:56;16.77;83.04
73829;SHT30;62176;48.450;-4.466;2022-09-09T03:39:22;16.76;83.34
73829;SHT30;62176;48.450;-4.466;2022-09-09T03:41:47;16.74;83.26
73829;SHT30;62176;48.450;-4.466;2022-09-09T03:44:14;16.72;82.94
73829;SHT30;62176;48.450;-4.466;2022-09-09T03:46:39;16.69;83.45
73829;SHT30;62176;48.450;-4.466;2022-09-09T03:49:05;16.69;83.23
73829;SHT30;62176;48.450;-4.466;2022-09-09T03:51:30;16.70;83.51
73829;SHT30;62176;48.450;-4.466;2022-09-09T03:53:56;16.70;83.51
73829;SHT30;62176;48.450;-4.466;2022-09-09T03:56:23;16.70;83.56
73829;SHT30;62176;48.450;-4.466;2022-09-09T03:58:49;16.69;83.01
73829;SHT30;62176;48.450;-4.466;2022-09-09T04:01:15;16.69;83.02
73829;SHT30;62176;48.450;-4.466;2022-09-09T04:03:43;16.70;83.02
73829;SHT30;62176;48.450;-4.466;2022-09-09T04:06:11;16.72;82.88
73829;SHT30;62176;48.450;-4.466;2022-09-09T04:08:38;16.69;83.20
73829;SHT30;62176;48.450;-4.466;2022-09-09T04:11:04;16.67;82.71
73829;SHT30;62176;48.450;-4.466;2022-09-09T04:13:32;16.72;83.31
73829;SHT30;62176;48.450;-4.466;2022-09-09T04:16:00;16.74;83.02
73829;SHT30;62176;48.450;-4.466;2022-09-09T04:18:27;16.74;83.11
73829;SHT30;62176;48.450;-4.466;2022-09-09T04:20:54;16.73;82.82
73829;SHT30;62176;48.450;-4.466;2022-09-09T04:23:23;16.74;82.64
73829;SHT30;62176;48.450;-4.466;2022-09-09T04:25:53;16.74;83.01
73829;SHT30;62176;48.450;-4.466;2022-09-09T04:28:21;16.76;82.62
73829;SHT30;62176;48.450;-4.466;2022-09-09T04:30:47;16.76;82.74
73829;SHT30;62176;48.450;-4.466;2022-09-09T04:33:13;16.77;82.60
73829;SHT30;62176;48.450;-4.466;2022-09-09T04:35:44;16.74;82.70
73829;SHT30;62176;48.450;-4.466;2022-09-09T04:38:10;16.76;82.59
73829;SHT30;62176;48.450;-4.466;2022-09-09T04:40:35;16.77;82.59
73829;SHT30;62176;48.450;-4.466;2022-09-09T04:43:02;16.77;82.53
73829;SHT30;62176;48.450;-4.466;2022-09-09T04:45:31;16.76;82.41
73829;SHT30;62176;48.450;-4.466;2022-09-09T04:47:57;16.76;83.02
73829;SHT30;62176;48.450;-4.466;2022-09-09T04:50:22;16.76;83.35
73829;SHT30;62176;48.450;-4.466;2022-09-09T04:52:48;16.72;83.54
73829;SHT30;62176;48.450;-4.466;2022-09-09T04:55:13;16.74;83.77
73829;SHT30;62176;48.450;-4.466;2022-09-09T04:57:40;16.72;83.57
73829;SHT30;62176;48.450;-4.466;2022-09-09T05:00:06;16.70;83.76
73829;SHT30;62176;48.450;-4.466;2022-09-09T05:02:32;16.72;83.67
73829;SHT30;62176;48.450;-4.466;2022-09-09T05:04:58;16.73;83.57
73829;SHT30;62176;48.450;-4.466;2022-09-09T05:07:24;16.72;83.77
73829;SHT30;62176;48.450;-4.466;2022-09-09T05:09:51;16.72;83.98
73829;SHT30;62176;48.450;-4.466;2022-09-09T05:12:17;16.74;83.84
73829;SHT30;62176;48.450;-4.466;2022-09-09T05:14:43;16.77;84.07
73829;SHT30;62176;48.450;-4.466;2022-09-09T05:17:08;16.81;83.84
73829;SHT30;62176;48.450;-4.466;2022-09-09T05:19:34;16.83;83.61
73829;SHT30;62176;48.450;-4.466;2022-09-09T05:21:59;16.81;83.97
73829;SHT30;62176;48.450;-4.466;2022-09-09T05:24:26;16.86;85.22
73829;SHT30;62176;48.450;-4.466;2022-09-09T05:26:51;16.72;88.79
73829;SHT30;62176;48.450;-4.466;2022-09-09T05:29:17;16.52;93.23
73829;SHT30;62176;48.450;-4.466;2022-09-09T05:31:45;16.38;93.41
73829;SHT30;62176;48.450;-4.466;2022-09-09T05:34:10;16.25;95.01
73829;SHT30;62176;48.450;-4.466;2022-09-09T05:36:36;16.13;96.20
73829;SHT30;62176;48.450;-4.466;2022-09-09T05:39:02;16.11;96.46
73829;SHT30;62176;48.450;-4.466;2022-09-09T05:41:28;16.02;95.99
73829;SHT30;62176;48.450;-4.466;2022-09-09T05:43:54;16.02;94.63
73829;SHT30;62176;48.450;-4.466;2022-09-09T05:46:23;15.98;92.66
73829;SHT30;62176;48.450;-4.466;2022-09-09T05:48:50;15.94;92.98
73829;SHT30;62176;48.450;-4.466;2022-09-09T05:51:24;15.98;93.56
73829;SHT30;62176;48.450;-4.466;2022-09-09T05:53:51;15.98;93.39
73829;SHT30;62176;48.450;-4.466;2022-09-09T05:56:22;15.99;93.56
73829;SHT30;62176;48.450;-4.466;2022-09-09T05:58:49;16.04;93.75
73829;SHT30;62176;48.450;-4.466;2022-09-09T06:01:15;16.01;93.55
73829;SHT30;62176;48.450;-4.466;2022-09-09T06:03:44;16.02;93.51
73829;SHT30;62176;48.450;-4.466;2022-09-09T06:06:12;16.04;93.59
73829;SHT30;62176;48.450;-4.466;2022-09-09T06:08:40;16.02;93.56
73829;SHT30;62176;48.450;-4.466;2022-09-09T06:11:11;16.05;93.64
73829;SHT30;62176;48.450;-4.466;2022-09-09T06:13:38;16.09;93.68
73829;SHT30;62176;48.450;-4.466;2022-09-09T06:16:04;16.08;93.42
73829;SHT30;62176;48.450;-4.466;2022-09-09T06:18:30;16.09;93.31
73829;SHT30;62176;48.450;-4.466;2022-09-09T06:23:25;16.04;92.83
73829;SHT30;62176;48.450;-4.466;2022-09-09T06:25:51;16.04;93.27
73829;SHT30;62176;48.450;-4.466;2022-09-09T06:28:17;16.05;92.89
73829;SHT30;62176;48.450;-4.466;2022-09-09T06:30:43;16.12;93.26
73829;SHT30;62176;48.450;-4.466;2022-09-09T06:33:08;16.16;92.89
73829;SHT30;62176;48.450;-4.466;2022-09-09T06:35:34;16.16;92.35
73829;SHT30;62176;48.450;-4.466;2022-09-09T06:38:00;16.12;91.95
73829;SHT30;62176;48.450;-4.466;2022-09-09T06:40:26;16.12;92.46
73829;SHT30;62176;48.450;-4.466;2022-09-09T06:42:51;16.16;92.64
73829;SHT30;62176;48.450;-4.466;2022-09-09T06:45:16;16.19;92.66
73829;SHT30;62176;48.450;-4.466;2022-09-09T06:47:43;16.19;92.58
73829;SHT30;62176;48.450;-4.466;2022-09-09T06:50:08;16.19;92.48
73829;SHT30;62176;48.450;-4.466;2022-09-09T06:52:35;16.21;92.28
73829;SHT30;62176;48.450;-4.466;2022-09-09T06:55:01;16.19;92.08
73829;SHT30;62176;48.450;-4.466;2022-09-09T06:57:26;16.18;92.14
73829;SHT30;62176;48.450;-4.466;2022-09-09T06:59:52;16.19;91.95
73829;SHT30;62176;48.450;-4.466;2022-09-09T07:02:17;16.25;92.62
73829;SHT30;62176;48.450;-4.466;2022-09-09T07:04:42;16.29;92.38
73829;SHT30;62176;48.450;-4.466;2022-09-09T07:07:08;16.32;92.23
73829;SHT30;62176;48.450;-4.466;2022-09-09T07:09:35;16.32;92.03
73829;SHT30;62176;48.450;-4.466;2022-09-09T07:12:00;16.34;92.11
73829;SHT30;62176;48.450;-4.466;2022-09-09T07:14:26;16.41;92.02
73829;SHT30;62176;48.450;-4.466;2022-09-09T07:16:52;16.48;92.52
73829;SHT30;62176;48.450;-4.466;2022-09-09T07:19:17;16.46;91.33
73829;SHT30;62176;48.450;-4.466;2022-09-09T07:21:43;16.55;92.01
73829;SHT30;62176;48.450;-4.466;2022-09-09T07:24:09;16.57;91.57
73829;SHT30;62176;48.450;-4.466;2022-09-09T07:26:36;16.63;91.98
73829;SHT30;62176;48.450;-4.466;2022-09-09T07:29:02;16.64;90.43
73829;SHT30;62176;48.450;-4.466;2022-09-09T07:31:29;16.64;90.89
73829;SHT30;62176;48.450;-4.466;2022-09-09T07:33:56;16.66;90.49
73829;SHT30;62176;48.450;-4.466;2022-09-09T07:36:26;16.67;90.56
73829;SHT30;62176;48.450;-4.466;2022-09-09T07:38:54;16.64;89.85
73829;SHT30;62176;48.450;-4.466;2022-09-09T07:41:32;16.69;90.01
73829;SHT30;62176;48.450;-4.466;2022-09-09T07:44:03;16.70;89.83
73829;SHT30;62176;48.450;-4.466;2022-09-09T07:46:28;16.72;89.58
73829;SHT30;62176;48.450;-4.466;2022-09-09T07:48:55;16.77;90.19
73829;SHT30;62176;48.450;-4.466;2022-09-09T07:51:27;16.86;89.73
73829;SHT30;62176;48.450;-4.466;2022-09-09T07:53:55;16.97;89.22
73829;SHT30;62176;48.450;-4.466;2022-09-09T07:56:23;17.06;89.07
73829;SHT30;62176;48.450;-4.466;2022-09-09T07:58:50;17.13;87.79
73829;SHT30;62176;48.450;-4.466;2022-09-09T08:01:18;17.26;87.80
73829;SHT30;62176;48.450;-4.466;2022-09-09T08:03:44;17.28;87.02
73829;SHT30;62176;48.450;-4.466;2022-09-09T08:06:12;17.38;87.10
73829;SHT30;62176;48.450;-4.466;2022-09-09T08:08:39;17.41;86.18
73829;SHT30;62176;48.450;-4.466;2022-09-09T08:11:16;17.44;86.74
73829;SHT30;62176;48.450;-4.466;2022-09-09T08:13:44;17.45;84.93
73829;SHT30;62176;48.450;-4.466;2022-09-09T08:16:15;17.48;85.63
73829;SHT30;62176;48.450;-4.466;2022-09-09T08:18:41;17.51;85.64
73829;SHT30;62176;48.450;-4.466;2022-09-09T08:21:19;17.47;85.41
73829;SHT30;62176;48.450;-4.466;2022-09-09T08:23:46;17.52;85.70
73829;SHT30;62176;48.450;-4.466;2022-09-09T08:26:17;17.51;84.59
73829;SHT30;62176;48.450;-4.466;2022-09-09T08:28:44;17.57;84.51
73829;SHT30;62176;48.450;-4.466;2022-09-09T08:33:35;17.62;84.51
73829;SHT30;62176;48.450;-4.466;2022-09-09T08:36:03;17.59;85.54
73829;SHT30;62176;48.450;-4.466;2022-09-09T08:38:29;17.68;85.14
73829;SHT30;62176;48.450;-4.466;2022-09-09T08:41:03;17.72;85.32
73829;SHT30;62176;48.450;-4.466;2022-09-09T08:43:33;17.75;83.56
73829;SHT30;62176;48.450;-4.466;2022-09-09T08:46:12;17.77;84.66
73829;SHT30;62176;48.450;-4.466;2022-09-09T08:51:30;17.91;82.85
73829;SHT30;62176;48.450;-4.466;2022-09-09T08:53:58;17.98;84.38
73829;SHT30;62176;48.450;-4.466;2022-09-09T08:56:27;18.03;81.71
73829;SHT30;62176;48.450;-4.466;2022-09-09T08:58:55;18.05;82.49
73829;SHT30;62176;48.450;-4.466;2022-09-09T09:01:50;18.10;82.42
73829;SHT30;62176;48.450;-4.466;2022-09-09T09:04:38;18.13;82.19
73829;SHT30;62176;48.450;-4.466;2022-09-09T09:07:18;18.12;83.39
73829;SHT30;62176;48.450;-4.466;2022-09-09T09:12:42;17.95;82.66
73829;SHT30;62176;48.450;-4.466;2022-09-09T09:15:57;17.96;84.17
73829;SHT30;62176;48.450;-4.466;2022-09-09T09:18:04;17.93;83.84
73829;SHT30;62176;48.450;-4.466;2022-09-09T09:20:48;17.95;84.09
73829;SHT30;62176;48.450;-4.466;2022-09-09T09:23:21;17.96;84.40
73829;SHT30;62176;48.450;-4.466;2022-09-09T09:25:47;17.88;88.85
73829;SHT30;62176;48.450;-4.466;2022-09-09T09:28:18;17.74;88.41
73829;SHT30;62176;48.450;-4.466;2022-09-09T09:30:56;17.62;89.85
73829;SHT30;62176;48.450;-4.466;2022-09-09T09:33:38;17.61;90.49
73829;SHT30;62176;48.450;-4.466;2022-09-09T09:36:08;17.62;90.80
73829;SHT30;62176;48.450;-4.466;2022-09-09T09:38:35;17.65;90.52
73829;SHT30;62176;48.450;-4.466;2022-09-09T09:41:01;17.71;90.05
73829;SHT30;62176;48.450;-4.466;2022-09-09T09:43:32;17.78;90.16
73829;SHT30;62176;48.450;-4.466;2022-09-09T09:45:58;17.85;89.86
73829;SHT30;62176;48.450;-4.466;2022-09-09T09:48:25;17.92;89.33
73829;SHT30;62176;48.450;-4.466;2022-09-09T09:50:53;18.01;88.89
73829;SHT30;62176;48.450;-4.466;2022-09-09T09:55:52;18.10;88.12
73829;SHT30;62176;48.450;-4.466;2022-09-09T09:58:18;18.02;86.46
73829;SHT30;62176;48.450;-4.466;2022-09-09T10:00:49;17.99;85.61
73829;SHT30;62176;48.450;-4.466;2022-09-09T10:03:33;17.65;89.75
73829;SHT30;62176;48.450;-4.466;2022-09-09T10:06:04;17.17;90.95
73829;SHT30;62176;48.450;-4.466;2022-09-09T10:08:34;17.03;92.32
73829;SHT30;62176;48.450;-4.466;2022-09-09T10:11:29;16.87;92.16
73829;SHT30;62176;48.450;-4.466;2022-09-09T10:19:16;16.63;89.28
73829;SHT30;62176;48.450;-4.466;2022-09-09T10:32:38;17.10;92.66
73829;SHT30;62176;48.450;-4.466;2022-09-09T10:49:24;17.37;82.36
73829;SHT30;62176;48.450;-4.466;2022-09-09T10:57:03;17.48;84.12
73829;SHT30;62176;48.450;-4.466;2022-09-09T10:59:33;17.59;84.42
73829;SHT30;62176;48.450;-4.466;2022-09-09T11:02:27;17.68;84.25
73829;SHT30;62176;48.450;-4.466;2022-09-09T11:05:41;17.77;82.47
73829;SHT30;62176;48.450;-4.466;2022-09-09T11:07:58;17.93;84.44
73829;SHT30;62176;48.450;-4.466;2022-09-09T11:18:41;18.43;79.96
73829;SHT30;62176;48.450;-4.466;2022-09-09T11:21:17;18.50;79.63
73829;SHT30;62176;48.450;-4.466;2022-09-09T11:23:50;18.52;78.70
73829;SHT30;62176;48.450;-4.466;2022-09-09T11:26:39;18.57;78.25
73829;SHT30;62176;48.450;-4.466;2022-09-09T11:33:04;18.64;76.29
73829;SHT30;62176;48.450;-4.466;2022-09-09T11:37:51;18.88;74.55
73829;SHT30;62176;48.450;-4.466;2022-09-09T11:40:25;19.08;75.65
73829;SHT30;62176;48.450;-4.466;2022-09-09T11:43:26;19.10;73.27
73829;SHT30;62176;48.450;-4.466;2022-09-09T11:45:54;19.11;76.37
73829;SHT30;62176;48.450;-4.466;2022-09-09T11:53:31;19.15;72.87
73829;SHT30;62176;48.450;-4.466;2022-09-09T11:56:32;19.27;73.77
73829;SHT30;62176;48.450;-4.466;2022-09-09T12:01:40;19.47;71.45
73829;SHT30;62176;48.450;-4.466;2022-09-09T12:04:12;19.54;74.03
73829;SHT30;62176;48.450;-4.466;2022-09-09T12:06:48;19.65;71.29
73829;SHT30;62176;48.450;-4.466;2022-09-09T12:09:21;19.69;72.18
73829;SHT30;62176;48.450;-4.466;2022-09-09T12:11:48;19.72;71.65
73829;SHT30;62176;48.450;-4.466;2022-09-09T12:14:36;19.75;70.94
73829;SHT30;62176;48.450;-4.466;2022-09-09T12:17:22;19.72;71.88
73829;SHT30;62176;48.450;-4.466;2022-09-09T12:28:24;19.82;72.06
73829;SHT30;62176;48.450;-4.466;2022-09-09T12:31:11;19.61;72.04
73829;SHT30;62176;48.450;-4.466;2022-09-09T12:33:44;19.58;72.00
73829;SHT30;62176;48.450;-4.466;2022-09-09T12:36:28;19.71;72.25
73829;SHT30;62176;48.450;-4.466;2022-09-09T12:38:57;19.85;72.20
73829;SHT30;62176;48.450;-4.466;2022-09-09T12:41:26;20.05;73.35
73829;SHT30;62176;48.450;-4.466;2022-09-09T12:44:03;20.19;71.87
73829;SHT30;62176;48.450;-4.466;2022-09-09T12:46:36;20.06;69.09
73829;SHT30;62176;48.450;-4.466;2022-09-09T12:49:03;19.87;71.18
73829;SHT30;62176;48.450;-4.466;2022-09-09T12:51:31;19.75;70.37
73829;SHT30;62176;48.450;-4.466;2022-09-09T12:53:59;19.89;73.09
73829;SHT30;62176;48.450;-4.466;2022-09-09T12:56:27;20.03;70.46
73829;SHT30;62176;48.450;-4.466;2022-09-09T12:58:55;20.10;71.13
73829;SHT30;62176;48.450;-4.466;2022-09-09T13:01:28;20.32;70.39
73829;SHT30;62176;48.450;-4.466;2022-09-09T13:03:54;20.39;73.10
73829;SHT30;62176;48.450;-4.466;2022-09-09T13:06:31;20.47;70.14
73829;SHT30;62176;48.450;-4.466;2022-09-09T13:08:59;20.40;70.68
73829;SHT30;62176;48.450;-4.466;2022-09-09T13:13:55;20.23;69.76
73829;SHT30;62176;48.450;-4.466;2022-09-09T13:16:32;20.17;69.34
73829;SHT30;62176;48.450;-4.466;2022-09-09T13:19:00;20.13;69.87
73829;SHT30;62176;48.450;-4.466;2022-09-09T13:21:34;20.16;69.53
73829;SHT30;62176;48.450;-4.466;2022-09-09T13:24:00;20.17;67.79
73829;SHT30;62176;48.450;-4.466;2022-09-09T13:26:29;20.10;67.67
73829;SHT30;62176;48.450;-4.466;2022-09-09T13:29:09;20.06;69.56
73829;SHT30;62176;48.450;-4.466;2022-09-09T13:31:40;20.09;69.29
73829;SHT30;62176;48.450;-4.466;2022-09-09T13:34:29;19.97;68.87
73829;SHT30;62176;48.450;-4.466;2022-09-09T13:37:32;19.85;70.01
73829;SHT30;62176;48.450;-4.466;2022-09-09T13:39:59;19.90;70.83
73829;SHT30;62176;48.450;-4.466;2022-09-09T13:42:26;20.00;71.45
73829;SHT30;62176;48.450;-4.466;2022-09-09T13:44:54;20.05;69.52
73829;SHT30;62176;48.450;-4.466;2022-09-09T13:47:30;20.12;70.17
73829;SHT30;62176;48.450;-4.466;2022-09-09T13:49:56;20.14;69.97
73829;SHT30;62176;48.450;-4.466;2022-09-09T13:52:23;20.34;69.86
73829;SHT30;62176;48.450;-4.466;2022-09-09T13:54:50;20.46;70.59
73829;SHT30;62176;48.450;-4.466;2022-09-09T13:59:44;20.56;68.42
73829;SHT30;62176;48.450;-4.466;2022-09-09T14:02:10;20.60;69.56
73829;SHT30;62176;48.450;-4.466;2022-09-09T14:04:35;20.61;70.49
73829;SHT30;62176;48.450;-4.466;2022-09-09T14:07:01;20.71;68.20
73829;SHT30;62176;48.450;-4.466;2022-09-09T14:09:27;20.80;67.69
73829;SHT30;62176;48.450;-4.466;2022-09-09T14:11:53;20.64;66.80
73829;SHT30;62176;48.450;-4.466;2022-09-09T14:14:20;20.54;67.65
73829;SHT30;62176;48.450;-4.466;2022-09-09T14:16:45;20.46;66.49
73829;SHT30;62176;48.450;-4.466;2022-09-09T14:19:11;20.41;66.04
73829;SHT30;62176;48.450;-4.466;2022-09-09T14:21:36;20.43;68.22
73829;SHT30;62176;48.450;-4.466;2022-09-09T14:24:02;20.40;67.82
73829;SHT30;62176;48.450;-4.466;2022-09-09T14:26:27;20.32;67.16
73829;SHT30;62176;48.450;-4.466;2022-09-09T14:28:54;20.41;69.32
73829;SHT30;62176;48.450;-4.466;2022-09-09T14:31:20;20.57;69.60
73829;SHT30;62176;48.450;-4.466;2022-09-09T14:33:46;20.64;70.15
73829;SHT30;62176;48.450;-4.466;2022-09-09T14:36:12;20.64;69.64
73829;SHT30;62176;48.450;-4.466;2022-09-09T14:38:38;20.53;68.79
73829;SHT30;62176;48.450;-4.466;2022-09-09T14:41:05;20.41;69.73
73829;SHT30;62176;48.450;-4.466;2022-09-09T14:43:31;20.39;68.88
73829;SHT30;62176;48.450;-4.466;2022-09-09T14:46:07;20.53;70.96
73829;SHT30;62176;48.450;-4.466;2022-09-09T14:48:34;20.68;70.05
73829;SHT30;62176;48.450;-4.466;2022-09-09T14:51:26;20.81;70.50
73829;SHT30;62176;48.450;-4.466;2022-09-09T14:53:58;20.83;68.80
73829;SHT30;62176;48.450;-4.466;2022-09-09T14:56:28;20.73;68.58
73829;SHT30;62176;48.450;-4.466;2022-09-09T14:58:55;20.61;68.27
73829;SHT30;62176;48.450;-4.466;2022-09-09T15:01:22;20.48;67.93
73829;SHT30;62176;48.450;-4.466;2022-09-09T15:03:54;20.32;69.02
73829;SHT30;62176;48.450;-4.466;2022-09-09T15:06:21;20.20;68.49
73829;SHT30;62176;48.450;-4.466;2022-09-09T15:08:47;20.17;68.69
73829;SHT30;62176;48.450;-4.466;2022-09-09T15:11:14;20.10;68.90
73829;SHT30;62176;48.450;-4.466;2022-09-09T15:13:41;20.10;70.23
73829;SHT30;62176;48.450;-4.466;2022-09-09T15:16:09;20.06;68.94
73829;SHT30;62176;48.450;-4.466;2022-09-09T15:18:35;20.23;69.89
73829;SHT30;62176;48.450;-4.466;2022-09-09T15:21:02;20.36;69.68
73829;SHT30;62176;48.450;-4.466;2022-09-09T15:23:34;20.34;69.30
73829;SHT30;62176;48.450;-4.466;2022-09-09T15:25:59;20.23;68.80
73829;SHT30;62176;48.450;-4.466;2022-09-09T15:28:25;20.19;70.38
73829;SHT30;62176;48.450;-4.466;2022-09-09T15:30:52;20.19;69.64
73829;SHT30;62176;48.450;-4.466;2022-09-09T15:33:18;20.06;71.18
73829;SHT30;62176;48.450;-4.466;2022-09-09T15:35:44;20.05;70.90
73829;SHT30;62176;48.450;-4.466;2022-09-09T15:38:10;20.08;71.59
73829;SHT30;62176;48.450;-4.466;2022-09-09T15:40:38;20.06;72.16
73829;SHT30;62176;48.450;-4.466;2022-09-09T15:43:05;20.05;71.87
73829;SHT30;62176;48.450;-4.466;2022-09-09T15:45:32;19.94;71.59
73829;SHT30;62176;48.450;-4.466;2022-09-09T15:47:59;19.82;70.94
73829;SHT30;62176;48.450;-4.466;2022-09-09T15:50:24;19.76;72.01
73829;SHT30;62176;48.450;-4.466;2022-09-09T15:52:51;19.73;72.25
73829;SHT30;62176;48.450;-4.466;2022-09-09T15:55:18;19.72;72.35
73829;SHT30;62176;48.450;-4.466;2022-09-09T15:57:45;19.66;72.48
73829;SHT30;62176;48.450;-4.466;2022-09-09T16:00:13;19.66;72.72
73829;SHT30;62176;48.450;-4.466;2022-09-09T16:02:39;19.66;72.47
73829;SHT30;62176;48.450;-4.466;2022-09-09T16:05:05;19.65;72.99
73829;SHT30;62176;48.450;-4.466;2022-09-09T16:07:31;19.63;72.19
73829;SHT30;62176;48.450;-4.466;2022-09-09T16:09:56;19.62;72.79
73829;SHT30;62176;48.450;-4.466;2022-09-09T16:12:22;19.61;73.18
73829;SHT30;62176;48.450;-4.466;2022-09-09T16:14:47;19.58;73.37
73829;SHT30;62176;48.450;-4.466;2022-09-09T16:17:13;19.63;73.50
73829;SHT30;62176;48.450;-4.466;2022-09-09T16:19:39;19.73;72.67
73829;SHT30;62176;48.450;-4.466;2022-09-09T16:22:05;19.71;72.04
73829;SHT30;62176;48.450;-4.466;2022-09-09T16:24:32;19.78;71.30
73829;SHT30;62176;48.450;-4.466;2022-09-09T16:26:57;19.86;71.65
73829;SHT30;62176;48.450;-4.466;2022-09-09T16:29:23;19.85;71.46
73829;SHT30;62176;48.450;-4.466;2022-09-09T16:31:51;19.93;71.41
73829;SHT30;62176;48.450;-4.466;2022-09-09T16:34:17;19.90;70.57
73829;SHT30;62176;48.450;-4.466;2022-09-09T16:36:44;19.93;71.60
73829;SHT30;62176;48.450;-4.466;2022-09-09T16:39:12;19.86;71.28
73829;SHT30;62176;48.450;-4.466;2022-09-09T16:41:38;19.78;71.13
73829;SHT30;62176;48.450;-4.466;2022-09-09T16:44:07;19.75;72.02
73829;SHT30;62176;48.450;-4.466;2022-09-09T16:46:41;19.99;71.30
73829;SHT30;62176;48.450;-4.466;2022-09-09T16:49:09;20.10;71.62
73829;SHT30;62176;48.450;-4.466;2022-09-09T16:51:40;20.19;71.20
73829;SHT30;62176;48.450;-4.466;2022-09-09T16:54:08;20.48;71.02
73829;SHT30;62176;48.450;-4.466;2022-09-09T16:56:35;20.39;70.03
73829;SHT30;62176;48.450;-4.466;2022-09-09T16:59:08;20.19;71.05
73829;SHT30;62176;48.450;-4.466;2022-09-09T17:01:37;20.12;71.08
73829;SHT30;62176;48.450;-4.466;2022-09-09T17:04:05;20.19;71.53
73829;SHT30;62176;48.450;-4.466;2022-09-09T17:06:32;20.41;71.38
73829;SHT30;62176;48.450;-4.466;2022-09-09T17:09:01;20.51;69.91
73829;SHT30;62176;48.450;-4.466;2022-09-09T17:11:28;20.50;69.28
73829;SHT30;62176;48.450;-4.466;2022-09-09T17:13:54;20.47;69.12
73829;SHT30;62176;48.450;-4.466;2022-09-09T17:16:22;20.37;69.35
73829;SHT30;62176;48.450;-4.466;2022-09-09T17:18:51;20.27;68.28
73829;SHT30;62176;48.450;-4.466;2022-09-09T17:21:19;19.97;67.04
73829;SHT30;62176;48.450;-4.466;2022-09-09T17:23:46;19.89;67.80
73829;SHT30;62176;48.450;-4.466;2022-09-09T17:26:14;19.79;68.68
73829;SHT30;62176;48.450;-4.466;2022-09-09T17:28:41;19.73;69.01
73829;SHT30;62176;48.450;-4.466;2022-09-09T17:31:09;19.71;69.84
73829;SHT30;62176;48.450;-4.466;2022-09-09T17:33:37;19.69;70.29
73829;SHT30;62176;48.450;-4.466;2022-09-09T17:36:10;19.73;69.73
73829;SHT30;62176;48.450;-4.466;2022-09-09T17:38:36;19.79;70.65
73829;SHT30;62176;48.450;-4.466;2022-09-09T17:41:11;19.92;69.65